sensor_id;sensor_type;location;lat;lon;timestamp;temperature;humidity
29201;DHT22;16244;51.956;12.980;2022-11-15T00:01:49;3.40;97.80
29201;DHT22;16244;51.956;12.980;2022-11-15T00:04:20;3.40;97.80
29201;DHT22;16244;51.956;12.980;2022-11-15T00:06:47;3.40;97.70
29201;DHT22;16244;51.956;12.980;2022-11-15T00:09:14;3.40;97.30
29201;DHT22;16244;51.956;12.980;2022-11-15T00:11:41;3.30;97.00
29201;DHT22;16244;51.956;12.980;2022-11-15T00:14:08;3.30;97.20
29201;DHT22;16244;51.956;12.980;2022-11-15T00:16:37;3.30;97.10
29201;DHT22;16244;51.956;12.980;2022-11-15T00:19:04;3.20;97.10
29201;DHT22;16244;51.956;12.980;2022-11-15T00:21:31;3.30;97.00
29201;DHT22;16244;51.956;12.980;2022-11-15T00:23:59;3.20;96.80
29201;DHT22;16244;51.956;12.980;2022-11-15T00:26:27;3.30;96.70
29201;DHT22;16244;51.956;12.980;2022-11-15T00:28:55;3.20;96.50
29201;DHT22;16244;51.956;12.980;2022-11-15T00:31:22;3.20;96.70
29201;DHT22;16244;51.956;12.980;2022-11-15T00:33:51;3.20;96.70
29201;DHT22;16244;51.956;12.980;2022-11-15T00:36:18;3.10;96.40
29201;DHT22;16244;51.956;12.980;2022-11-15T00:38:45;3.20;96.40
29201;DHT22;16244;51.956;12.980;2022-11-15T00:41:12;3.20;96.70
29201;DHT22;16244;51.956;12.980;2022-11-15T00:43:39;3.40;97.00
29201;DHT22;16244;51.956;12.980;2022-11-15T00:46:09;3.50;97.00
29201;DHT22;16244;51.956;12.980;2022-11-15T00:48:37;3.50;97.10
29201;DHT22;16244;51.956;12.980;2022-11-15T00:51:06;3.50;97.20
29201;DHT22;16244;51.956;12.980;2022-11-15T00:53:33;3.50;97.30
29201;DHT22;16244;51.956;12.980;2022-11-15T00:56:00;3.50;97.20
29201;DHT22;16244;51.956;12.980;2022-11-15T00:58:27;3.40;97.00
29201;DHT22;16244;51.956;12.980;2022-11-15T01:00:54;3.40;96.90
29201;DHT22;16244;51.956;12.980;2022-11-15T01:03:21;3.50;97.20
29201;DHT22;16244;51.956;12.980;2022-11-15T01:05:49;3.50;97.20
29201;DHT22;16244;51.956;12.980;2022-11-15T01:08:17;3.40;97.10
29201;DHT22;16244;51.956;12.980;2022-11-15T01:10:44;3.40;97.30
29201;DHT22;16244;51.956;12.980;2022-11-15T01:13:12;3.40;97.30
29201;DHT22;16244;51.956;12.980;2022-11-15T01:15:40;3.40;97.20
29201;DHT22;16244;51.956;12.980;2022-11-15T01:18:08;3.40;96.90
29201;DHT22;16244;51.956;12.980;2022-11-15T01:20:39;3.30;96.90
29201;DHT22;16244;51.956;12.980;2022-11-15T01:23:06;3.30;96.80
29201;DHT22;16244;51.956;12.980;2022-11-15T01:25:35;3.30;96.80
29201;DHT22;16244;51.956;12.980;2022-11-15T01:28:02;3.30;96.70
29201;DHT22;16244;51.956;12.980;2022-11-15T01:30:29;3.30;96.60
29201;DHT22;16244;51.956;12.980;2022-11-15T01:32:56;3.20;96.60
29201;DHT22;16244;51.956;12.980;2022-11-15T01:35:23;3.20;96.70
29201;DHT22;16244;51.956;12.980;2022-11-15T01:37:50;3.10;96.60
29201;DHT22;16244;51.956;12.980;2022-11-15T01:40:17;3.10;96.50
29201;DHT22;16244;51.956;12.980;2022-11-15T01:42:46;3.10;96.40
29201;DHT22;16244;51.956;12.980;2022-11-15T01:45:14;3.00;96.70
29201;DHT22;16244;51.956;12.980;2022-11-15T01:47:45;3.10;96.80
29201;DHT22;16244;51.956;12.980;2022-11-15T01:50:16;3.10;96.80
29201;DHT22;16244;51.956;12.980;2022-11-15T01:52:45;3.10;97.00
29201;DHT22;16244;51.956;12.980;2022-11-15T01:55:16;3.10;97.10
29201;DHT22;16244;51.956;12.980;2022-11-15T01:57:50;3.20;97.30
29201;DHT22;16244;51.956;12.980;2022-11-15T02:00:19;3.30;97.70
29201;DHT22;16244;51.956;12.980;2022-11-15T02:02:47;3.50;97.80
29201;DHT22;16244;51.956;12.980;2022-11-15T02:05:14;3.50;98.00
29201;DHT22;16244;51.956;12.980;2022-11-15T02:07:42;3.50;97.80
29201;DHT22;16244;51.956;12.980;2022-11-15T02:10:11;3.50;97.80
29201;DHT22;16244;51.956;12.980;2022-11-15T02:12:39;3.50;97.80
29201;DHT22;16244;51.956;12.980;2022-11-15T02:15:09;3.60;97.80
29201;DHT22;16244;51.956;12.980;2022-11-15T02:17:55;3.50;97.80
29201;DHT22;16244;51.956;12.980;2022-11-15T02:23:56;3.20;96.90
29201;DHT22;16244;51.956;12.980;2022-11-15T02:26:51;3.10;97.00
29201;DHT22;16244;51.956;12.980;2022-11-15T02:29:34;3.00;97.00
29201;DHT22;16244;51.956;12.980;2022-11-15T02:32:13;3.00;97.00
29201;DHT22;16244;51.956;12.980;2022-11-15T02:34:48;3.00;97.20
29201;DHT22;16244;51.956;12.980;2022-11-15T02:37:22;3.30;98.00
29201;DHT22;16244;51.956;12.980;2022-11-15T02:40:01;3.60;98.40
29201;DHT22;16244;51.956;12.980;2022-11-15T02:42:35;3.70;98.20
29201;DHT22;16244;51.956;12.980;2022-11-15T02:45:24;3.80;97.90
29201;DHT22;16244;51.956;12.980;2022-11-15T02:47:56;3.70;97.90
29201;DHT22;16244;51.956;12.980;2022-11-15T02:50:27;3.60;97.90
29201;DHT22;16244;51.956;12.980;2022-11-15T02:52:55;3.60;98.00
29201;DHT22;16244;51.956;12.980;2022-11-15T02:55:27;3.60;97.80
29201;DHT22;16244;51.956;12.980;2022-11-15T02:58:03;3.50;97.80
29201;DHT22;16244;51.956;12.980;2022-11-15T03:00:35;3.50;97.90
29201;DHT22;16244;51.956;12.980;2022-11-15T03:03:30;3.50;97.80
29201;DHT22;16244;51.956;12.980;2022-11-15T03:06:09;3.40;97.80
29201;DHT22;16244;51.956;12.980;2022-11-15T03:08:48;3.30;97.70
29201;DHT22;16244;51.956;12.980;2022-11-15T03:11:19;3.20;97.70
29201;DHT22;16244;51.956;12.980;2022-11-15T03:13:54;3.10;97.70
29201;DHT22;16244;51.956;12.980;2022-11-15T03:16:27;3.20;97.70
29201;DHT22;16244;51.956;12.980;2022-11-15T03:19:03;3.10;97.70
29201;DHT22;16244;51.956;12.980;2022-11-15T03:21:33;3.10;97.70
29201;DHT22;16244;51.956;12.980;2022-11-15T03:24:03;3.10;97.70
29201;DHT22;16244;51.956;12.980;2022-11-15T03:26:32;3.00;97.70
29201;DHT22;16244;51.956;12.980;2022-11-15T03:29:03;3.00;97.70
29201;DHT22;16244;51.956;12.980;2022-11-15T03:31:35;3.00;97.70
29201;DHT22;16244;51.956;12.980;2022-11-15T03:34:26;3.10;97.70
29201;DHT22;16244;51.956;12.980;2022-11-15T03:36:54;3.10;97.50
29201;DHT22;16244;51.956;12.980;2022-11-15T03:39:22;3.10;97.70
29201;DHT22;16244;51.956;12.980;2022-11-15T03:41:57;3.10;97.70
29201;DHT22;16244;51.956;12.980;2022-11-15T03:44:37;3.10;97.80
29201;DHT22;16244;51.956;12.980;2022-11-15T03:47:09;3.10;97.80
29201;DHT22;16244;51.956;12.980;2022-11-15T03:49:43;3.10;98.30
29201;DHT22;16244;51.956;12.980;2022-11-15T03:52:11;3.10;98.50
29201;DHT22;16244;51.956;12.980;2022-11-15T03:54:48;3.20;98.40
29201;DHT22;16244;51.956;12.980;2022-11-15T03:57:16;3.10;98.40
29201;DHT22;16244;51.956;12.980;2022-11-15T03:59:43;3.20;98.60
29201;DHT22;16244;51.956;12.980;2022-11-15T04:02:10;3.10;98.50
29201;DHT22;16244;51.956;12.980;2022-11-15T04:04:37;3.10;98.50
29201;DHT22;16244;51.956;12.980;2022-11-15T04:07:05;3.10;98.50
29201;DHT22;16244;51.956;12.980;2022-11-15T04:09:32;3.10;98.50
29201;DHT22;16244;51.956;12.980;2022-11-15T04:12:19;3.20;98.50
29201;DHT22;16244;51.956;12.980;2022-11-15T04:14:57;3.10;98.30
29201;DHT22;16244;51.956;12.980;2022-11-15T04:17:38;3.10;98.30
29201;DHT22;16244;51.956;12.980;2022-11-15T04:20:09;3.10;98.30
29201;DHT22;16244;51.956;12.980;2022-11-15T04:22:56;3.00;98.30
29201;DHT22;16244;51.956;12.980;2022-11-15T04:25:42;3.10;98.70
29201;DHT22;16244;51.956;12.980;2022-11-15T04:28:10;3.10;98.50
29201;DHT22;16244;51.956;12.980;2022-11-15T04:30:37;3.10;98.50
29201;DHT22;16244;51.956;12.980;2022-11-15T04:33:04;3.10;98.40
29201;DHT22;16244;51.956;12.980;2022-11-15T04:35:31;3.00;98.30
29201;DHT22;16244;51.956;12.980;2022-11-15T04:38:04;3.00;98.50
29201;DHT22;16244;51.956;12.980;2022-11-15T04:40:30;3.10;98.60
29201;DHT22;16244;51.956;12.980;2022-11-15T04:42:58;3.10;98.40
29201;DHT22;16244;51.956;12.980;2022-11-15T04:45:25;3.10;98.40
29201;DHT22;16244;51.956;12.980;2022-11-15T04:47:52;3.10;98.40
29201;DHT22;16244;51.956;12.980;2022-11-15T04:50:19;3.20;98.50
29201;DHT22;16244;51.956;12.980;2022-11-15T04:52:51;3.10;98.40
29201;DHT22;16244;51.956;12.980;2022-11-15T04:55:19;3.10;98.40
29201;DHT22;16244;51.956;12.980;2022-11-15T04:57:47;3.20;98.70
29201;DHT22;16244;51.956;12.980;2022-11-15T05:00:16;3.20;98.60
29201;DHT22;16244;51.956;12.980;2022-11-15T05:02:43;3.30;98.90
29201;DHT22;16244;51.956;12.980;2022-11-15T05:05:28;3.50;99.10
29201;DHT22;16244;51.956;12.980;2022-11-15T05:07:55;3.50;99.10
29201;DHT22;16244;51.956;12.980;2022-11-15T05:10:24;3.60;99.10
29201;DHT22;16244;51.956;12.980;2022-11-15T05:12:51;3.60;99.10
29201;DHT22;16244;51.956;12.980;2022-11-15T05:15:18;3.70;99.00
29201;DHT22;16244;51.956;12.980;2022-11-15T05:17:45;3.60;98.90
29201;DHT22;16244;51.956;12.980;2022-11-15T05:20:12;3.70;98.90
29201;DHT22;16244;51.956;12.980;2022-11-15T05:22:40;3.70;98.90
29201;DHT22;16244;51.956;12.980;2022-11-15T05:25:07;3.80;98.90
29201;DHT22;16244;51.956;12.980;2022-11-15T05:27:36;3.90;98.80
29201;DHT22;16244;51.956;12.980;2022-11-15T05:30:03;3.90;98.60
29201;DHT22;16244;51.956;12.980;2022-11-15T05:32:31;3.80;98.40
29201;DHT22;16244;51.956;12.980;2022-11-15T05:34:58;3.80;98.50
29201;DHT22;16244;51.956;12.980;2022-11-15T05:37:25;3.70;98.50
29201;DHT22;16244;51.956;12.980;2022-11-15T05:39:52;3.60;98.30
29201;DHT22;16244;51.956;12.980;2022-11-15T05:42:19;3.50;98.40
29201;DHT22;16244;51.956;12.980;2022-11-15T05:44:49;3.40;98.50
29201;DHT22;16244;51.956;12.980;2022-11-15T05:47:22;3.40;98.80
29201;DHT22;16244;51.956;12.980;2022-11-15T05:49:52;3.30;98.10
29201;DHT22;16244;51.956;12.980;2022-11-15T05:52:23;3.10;98.20
29201;DHT22;16244;51.956;12.980;2022-11-15T05:54:52;3.10;98.30
29201;DHT22;16244;51.956;12.980;2022-11-15T05:57:19;3.10;98.20
29201;DHT22;16244;51.956;12.980;2022-11-15T05:59:48;3.00;98.20
29201;DHT22;16244;51.956;12.980;2022-11-15T06:02:15;3.00;98.20
29201;DHT22;16244;51.956;12.980;2022-11-15T06:04:42;3.00;98.20
29201;DHT22;16244;51.956;12.980;2022-11-15T06:07:09;3.00;98.20
29201;DHT22;16244;51.956;12.980;2022-11-15T06:09:36;3.00;98.20
29201;DHT22;16244;51.956;12.980;2022-11-15T06:12:04;2.90;98.10
29201;DHT22;16244;51.956;12.980;2022-11-15T06:14:31;2.90;97.90
29201;DHT22;16244;51.956;12.980;2022-11-15T06:16:59;2.80;97.60
29201;DHT22;16244;51.956;12.980;2022-11-15T06:19:26;2.70;97.70
29201;DHT22;16244;51.956;12.980;2022-11-15T06:21:53;2.70;97.70
29201;DHT22;16244;51.956;12.980;2022-11-15T06:24:20;2.80;97.80
29201;DHT22;16244;51.956;12.980;2022-11-15T06:26:47;2.90;98.00
29201;DHT22;16244;51.956;12.980;2022-11-15T06:29:14;3.00;98.00
29201;DHT22;16244;51.956;12.980;2022-11-15T06:31:41;3.00;98.00
29201;DHT22;16244;51.956;12.980;2022-11-15T06:34:10;3.10;98.30
29201;DHT22;16244;51.956;12.980;2022-11-15T06:36:37;3.10;98.30
29201;DHT22;16244;51.956;12.980;2022-11-15T06:39:05;3.10;98.30
29201;DHT22;16244;51.956;12.980;2022-11-15T06:41:33;3.10;98.10
29201;DHT22;16244;51.956;12.980;2022-11-15T06:44:01;3.00;97.90
29201;DHT22;16244;51.956;12.980;2022-11-15T06:46:28;2.80;97.40
29201;DHT22;16244;51.956;12.980;2022-11-15T06:48:55;2.80;97.60
29201;DHT22;16244;51.956;12.980;2022-11-15T06:51:23;2.80;97.60
29201;DHT22;16244;51.956;12.980;2022-11-15T06:53:51;2.80;97.50
29201;DHT22;16244;51.956;12.980;2022-11-15T06:56:18;2.80;97.30
29201;DHT22;16244;51.956;12.980;2022-11-15T06:58:45;2.80;97.20
29201;DHT22;16244;51.956;12.980;2022-11-15T07:01:12;2.80;97.20
29201;DHT22;16244;51.956;12.980;2022-11-15T07:03:41;2.80;97.20
29201;DHT22;16244;51.956;12.980;2022-11-15T07:06:09;2.90;97.20
29201;DHT22;16244;51.956;12.980;2022-11-15T07:08:38;2.90;97.60
29201;DHT22;16244;51.956;12.980;2022-11-15T07:11:06;3.00;97.70
29201;DHT22;16244;51.956;12.980;2022-11-15T07:13:35;3.00;97.70
29201;DHT22;16244;51.956;12.980;2022-11-15T07:16:03;3.10;97.80
29201;DHT22;16244;51.956;12.980;2022-11-15T07:18:31;3.10;97.80
29201;DHT22;16244;51.956;12.980;2022-11-15T07:21:01;3.30;98.00
29201;DHT22;16244;51.956;12.980;2022-11-15T07:23:28;3.30;98.10
29201;DHT22;16244;51.956;12.980;2022-11-15T07:25:57;3.60;98.50
29201;DHT22;16244;51.956;12.980;2022-11-15T07:28:25;3.70;98.40
29201;DHT22;16244;51.956;12.980;2022-11-15T07:30:52;3.70;98.30
29201;DHT22;16244;51.956;12.980;2022-11-15T07:33:19;3.60;98.30
29201;DHT22;16244;51.956;12.980;2022-11-15T07:35:46;3.60;98.40
29201;DHT22;16244;51.956;12.980;2022-11-15T07:38:15;3.70;98.50
29201;DHT22;16244;51.956;12.980;2022-11-15T07:40:45;3.70;98.70
29201;DHT22;16244;51.956;12.980;2022-11-15T07:43:14;3.70;98.90
29201;DHT22;16244;51.956;12.980;2022-11-15T07:45:42;3.80;99.00
29201;DHT22;16244;51.956;12.980;2022-11-15T07:48:10;3.80;99.00
29201;DHT22;16244;51.956;12.980;2022-11-15T07:50:40;3.90;99.00
29201;DHT22;16244;51.956;12.980;2022-11-15T07:53:09;4.00;99.00
29201;DHT22;16244;51.956;12.980;2022-11-15T07:55:37;4.00;99.10
29201;DHT22;16244;51.956;12.980;2022-11-15T07:58:05;4.10;99.20
29201;DHT22;16244;51.956;12.980;2022-11-15T08:00:34;4.20;99.20
29201;DHT22;16244;51.956;12.980;2022-11-15T08:03:04;4.30;99.20
29201;DHT22;16244;51.956;12.980;2022-11-15T08:05:31;4.40;99.20
29201;DHT22;16244;51.956;12.980;2022-11-15T08:07:58;4.50;99.20
29201;DHT22;16244;51.956;12.980;2022-11-15T08:10:26;4.80;99.20
29201;DHT22;16244;51.956;12.980;2022-11-15T08:12:57;4.90;99.20
29201;DHT22;16244;51.956;12.980;2022-11-15T08:15:25;5.00;99.20
29201;DHT22;16244;51.956;12.980;2022-11-15T08:17:55;5.10;99.30
29201;DHT22;16244;51.956;12.980;2022-11-15T08:20:23;5.30;99.20
29201;DHT22;16244;51.956;12.980;2022-11-15T08:22:50;5.50;99.10
29201;DHT22;16244;51.956;12.980;2022-11-15T08:25:17;5.70;99.00
29201;DHT22;16244;51.956;12.980;2022-11-15T08:27:44;5.90;99.00
29201;DHT22;16244;51.956;12.980;2022-11-15T08:30:12;6.20;98.80
29201;DHT22;16244;51.956;12.980;2022-11-15T08:32:39;6.60;98.60
29201;DHT22;16244;51.956;12.980;2022-11-15T08:35:08;7.20;98.70
29201;DHT22;16244;51.956;12.980;2022-11-15T08:37:35;8.00;97.80
29201;DHT22;16244;51.956;12.980;2022-11-15T08:40:03;8.60;95.80
29201;DHT22;16244;51.956;12.980;2022-11-15T08:42:30;9.00;93.30
29201;DHT22;16244;51.956;12.980;2022-11-15T08:44:57;9.30;91.90
29201;DHT22;16244;51.956;12.980;2022-11-15T08:47:24;9.50;90.90
29201;DHT22;16244;51.956;12.980;2022-11-15T08:49:52;9.70;90.30
29201;DHT22;16244;51.956;12.980;2022-11-15T08:52:20;10.00;88.40
29201;DHT22;16244;51.956;12.980;2022-11-15T08:54:48;10.60;85.40
29201;DHT22;16244;51.956;12.980;2022-11-15T08:57:15;11.10;82.50
29201;DHT22;16244;51.956;12.980;2022-11-15T08:59:42;11.40;82.10
29201;DHT22;16244;51.956;12.980;2022-11-15T09:02:11;11.50;80.00
29201;DHT22;16244;51.956;12.980;2022-11-15T09:04:40;12.10;78.90
29201;DHT22;16244;51.956;12.980;2022-11-15T09:07:07;12.10;77.30
29201;DHT22;16244;51.956;12.980;2022-11-15T09:09:37;12.30;76.30
29201;DHT22;16244;51.956;12.980;2022-11-15T09:12:04;12.70;74.50
29201;DHT22;16244;51.956;12.980;2022-11-15T09:14:32;13.20;72.80
29201;DHT22;16244;51.956;12.980;2022-11-15T09:17:00;13.00;71.70
29201;DHT22;16244;51.956;12.980;2022-11-15T09:19:27;13.30;71.00
29201;DHT22;16244;51.956;12.980;2022-11-15T09:21:54;13.40;70.60
29201;DHT22;16244;51.956;12.980;2022-11-15T09:24:21;13.60;69.20
29201;DHT22;16244;51.956;12.980;2022-11-15T09:26:51;13.80;69.60
29201;DHT22;16244;51.956;12.980;2022-11-15T09:29:18;13.70;70.10
29201;DHT22;16244;51.956;12.980;2022-11-15T09:31:45;13.70;68.70
29201;DHT22;16244;51.956;12.980;2022-11-15T09:34:12;13.50;69.90
29201;DHT22;16244;51.956;12.980;2022-11-15T09:36:39;13.40;70.10
29201;DHT22;16244;51.956;12.980;2022-11-15T09:39:06;13.30;69.50
29201;DHT22;16244;51.956;12.980;2022-11-15T09:42:07;13.20;69.90
29201;DHT22;16244;51.956;12.980;2022-11-15T09:44:50;13.00;71.70
29201;DHT22;16244;51.956;12.980;2022-11-15T09:47:36;12.80;71.90
29201;DHT22;16244;51.956;12.980;2022-11-15T09:50:09;12.70;72.60
29201;DHT22;16244;51.956;12.980;2022-11-15T09:52:38;12.50;73.10
29201;DHT22;16244;51.956;12.980;2022-11-15T09:55:09;12.10;74.70
29201;DHT22;16244;51.956;12.980;2022-11-15T09:57:44;11.90;75.20
29201;DHT22;16244;51.956;12.980;2022-11-15T10:00:18;11.50;77.70
29201;DHT22;16244;51.956;12.980;2022-11-15T10:03:08;11.20;79.30
29201;DHT22;16244;51.956;12.980;2022-11-15T10:05:39;11.00;79.30
29201;DHT22;16244;51.956;12.980;2022-11-15T10:08:16;10.90;80.20
29201;DHT22;16244;51.956;12.980;2022-11-15T10:10:49;10.60;81.60
29201;DHT22;16244;51.956;12.980;2022-11-15T10:13:22;10.40;82.80
29201;DHT22;16244;51.956;12.980;2022-11-15T10:15:52;10.30;84.40
29201;DHT22;16244;51.956;12.980;2022-11-15T10:18:26;10.20;85.50
29201;DHT22;16244;51.956;12.980;2022-11-15T10:20:59;10.10;85.30
29201;DHT22;16244;51.956;12.980;2022-11-15T10:23:27;10.10;85.90
29201;DHT22;16244;51.956;12.980;2022-11-15T10:25:57;10.00;85.90
29201;DHT22;16244;51.956;12.980;2022-11-15T10:28:28;9.90;86.10
29201;DHT22;16244;51.956;12.980;2022-11-15T10:30:57;9.90;86.50
29201;DHT22;16244;51.956;12.980;2022-11-15T10:33:27;9.90;87.10
29201;DHT22;16244;51.956;12.980;2022-11-15T10:36:21;9.90;86.90
29201;DHT22;16244;51.956;12.980;2022-11-15T10:38:53;9.90;87.40
29201;DHT22;16244;51.956;12.980;2022-11-15T10:41:22;9.90;87.60
29201;DHT22;16244;51.956;12.980;2022-11-15T10:44:18;9.90;87.50
29201;DHT22;16244;51.956;12.980;2022-11-15T10:46:46;10.00;87.70
29201;DHT22;16244;51.956;12.980;2022-11-15T10:49:18;10.10;86.20
29201;DHT22;16244;51.956;12.980;2022-11-15T10:51:47;10.10;86.40
29201;DHT22;16244;51.956;12.980;2022-11-15T10:54:19;10.10;86.60
29201;DHT22;16244;51.956;12.980;2022-11-15T10:56:50;10.10;86.30
29201;DHT22;16244;51.956;12.980;2022-11-15T10:59:23;10.20;86.60
29201;DHT22;16244;51.956;12.980;2022-11-15T11:01:51;10.20;86.50
29201;DHT22;16244;51.956;12.980;2022-11-15T11:04:18;10.20;86.50
29201;DHT22;16244;51.956;12.980;2022-11-15T11:06:47;10.30;86.90
29201;DHT22;16244;51.956;12.980;2022-11-15T11:09:23;10.30;87.40
29201;DHT22;16244;51.956;12.980;2022-11-15T11:11:53;10.50;87.90
29201;DHT22;16244;51.956;12.980;2022-11-15T11:14:23;10.50;86.80
29201;DHT22;16244;51.956;12.980;2022-11-15T11:16:55;10.50;87.70
29201;DHT22;16244;51.956;12.980;2022-11-15T11:19:36;10.60;87.20
29201;DHT22;16244;51.956;12.980;2022-11-15T11:22:12;10.50;87.40
29201;DHT22;16244;51.956;12.980;2022-11-15T11:24:47;10.60;88.00
29201;DHT22;16244;51.956;12.980;2022-11-15T11:27:30;10.60;87.20
29201;DHT22;16244;51.956;12.980;2022-11-15T11:30:09;10.60;86.80
29201;DHT22;16244;51.956;12.980;2022-11-15T11:32:48;10.60;87.20
29201;DHT22;16244;51.956;12.980;2022-11-15T11:35:20;10.70;86.60
29201;DHT22;16244;51.956;12.980;2022-11-15T11:37:52;10.70;86.20
29201;DHT22;16244;51.956;12.980;2022-11-15T11:40:29;10.60;86.80
29201;DHT22;16244;51.956;12.980;2022-11-15T11:43:03;10.80;85.70
29201;DHT22;16244;51.956;12.980;2022-11-15T11:48:40;10.90;85.40
29201;DHT22;16244;51.956;12.980;2022-11-15T11:51:13;10.80;85.00
29201;DHT22;16244;51.956;12.980;2022-11-15T11:53:47;10.90;84.30
29201;DHT22;16244;51.956;12.980;2022-11-15T11:56:22;10.90;85.00
29201;DHT22;16244;51.956;12.980;2022-11-15T11:58:50;10.80;85.40
29201;DHT22;16244;51.956;12.980;2022-11-15T12:01:24;10.80;85.30
29201;DHT22;16244;51.956;12.980;2022-11-15T12:04:13;11.00;85.10
29201;DHT22;16244;51.956;12.980;2022-11-15T12:07:05;10.90;84.60
29201;DHT22;16244;51.956;12.980;2022-11-15T12:09:58;10.90;84.10
29201;DHT22;16244;51.956;12.980;2022-11-15T12:12:58;11.00;85.10
29201;DHT22;16244;51.956;12.980;2022-11-15T12:15:48;11.00;84.20
29201;DHT22;16244;51.956;12.980;2022-11-15T12:18:51;11.00;84.70
29201;DHT22;16244;51.956;12.980;2022-11-15T12:21:38;11.10;84.10
29201;DHT22;16244;51.956;12.980;2022-11-15T12:24:39;11.10;84.10
29201;DHT22;16244;51.956;12.980;2022-11-15T12:27:30;11.10;84.30
29201;DHT22;16244;51.956;12.980;2022-11-15T12:30:13;11.00;84.20
29201;DHT22;16244;51.956;12.980;2022-11-15T12:32:50;11.10;83.40
29201;DHT22;16244;51.956;12.980;2022-11-15T12:35:27;11.10;83.00
29201;DHT22;16244;51.956;12.980;2022-11-15T12:37:55;11.20;83.10
29201;DHT22;16244;51.956;12.980;2022-11-15T12:40:34;11.20;82.70
29201;DHT22;16244;51.956;12.980;2022-11-15T12:46:02;11.40;80.90
29201;DHT22;16244;51.956;12.980;2022-11-15T12:48:57;11.40;81.00
29201;DHT22;16244;51.956;12.980;2022-11-15T12:57:54;11.40;83.10
29201;DHT22;16244;51.956;12.980;2022-11-15T13:00:42;11.40;82.80
29201;DHT22;16244;51.956;12.980;2022-11-15T13:03:25;11.40;82.30
29201;DHT22;16244;51.956;12.980;2022-11-15T13:06:07;11.40;82.00
29201;DHT22;16244;51.956;12.980;2022-11-15T13:08:45;11.30;82.40
29201;DHT22;16244;51.956;12.980;2022-11-15T13:11:45;11.40;81.00
29201;DHT22;16244;51.956;12.980;2022-11-15T13:14:39;11.20;82.20
29201;DHT22;16244;51.956;12.980;2022-11-15T13:20:25;10.90;86.00
29201;DHT22;16244;51.956;12.980;2022-11-15T13:23:00;10.90;86.50
29201;DHT22;16244;51.956;12.980;2022-11-15T13:28:24;10.70;88.20
29201;DHT22;16244;51.956;12.980;2022-11-15T13:30:56;10.60;88.30
29201;DHT22;16244;51.956;12.980;2022-11-15T13:33:27;10.70;88.40
29201;DHT22;16244;51.956;12.980;2022-11-15T13:35:56;10.60;88.80
29201;DHT22;16244;51.956;12.980;2022-11-15T13:38:29;10.60;89.70
29201;DHT22;16244;51.956;12.980;2022-11-15T13:40:58;10.50;90.10
29201;DHT22;16244;51.956;12.980;2022-11-15T13:43:31;10.40;90.50
29201;DHT22;16244;51.956;12.980;2022-11-15T13:46:07;10.30;90.90
29201;DHT22;16244;51.956;12.980;2022-11-15T13:48:36;10.20;91.40
29201;DHT22;16244;51.956;12.980;2022-11-15T13:51:09;10.20;91.60
29201;DHT22;16244;51.956;12.980;2022-11-15T13:53:39;10.20;91.50
29201;DHT22;16244;51.956;12.980;2022-11-15T13:56:07;10.20;91.90
29201;DHT22;16244;51.956;12.980;2022-11-15T13:58:37;10.00;92.00
29201;DHT22;16244;51.956;12.980;2022-11-15T14:01:06;10.00;92.70
29201;DHT22;16244;51.956;12.980;2022-11-15T14:03:41;9.90;92.60
29201;DHT22;16244;51.956;12.980;2022-11-15T14:06:14;9.90;93.20
29201;DHT22;16244;51.956;12.980;2022-11-15T14:08:57;9.80;93.10
29201;DHT22;16244;51.956;12.980;2022-11-15T14:11:25;9.80;93.10
29201;DHT22;16244;51.956;12.980;2022-11-15T14:14:11;9.70;93.20
29201;DHT22;16244;51.956;12.980;2022-11-15T14:16:41;9.70;93.50
29201;DHT22;16244;51.956;12.980;2022-11-15T14:19:11;9.60;93.60
29201;DHT22;16244;51.956;12.980;2022-11-15T14:22:09;9.60;93.90
29201;DHT22;16244;51.956;12.980;2022-11-15T14:24:37;9.50;93.90
29201;DHT22;16244;51.956;12.980;2022-11-15T14:27:23;9.50;94.00
29201;DHT22;16244;51.956;12.980;2022-11-15T14:29:51;9.50;94.20
29201;DHT22;16244;51.956;12.980;2022-11-15T14:32:21;9.40;94.00
29201;DHT22;16244;51.956;12.980;2022-11-15T14:34:49;9.30;93.80
29201;DHT22;16244;51.956;12.980;2022-11-15T14:37:22;9.20;93.70
29201;DHT22;16244;51.956;12.980;2022-11-15T14:39:49;9.10;93.80
29201;DHT22;16244;51.956;12.980;2022-11-15T14:42:17;9.10;94.20
29201;DHT22;16244;51.956;12.980;2022-11-15T14:44:44;9.00;94.10
29201;DHT22;16244;51.956;12.980;2022-11-15T14:47:11;8.90;94.10
29201;DHT22;16244;51.956;12.980;2022-11-15T14:49:40;8.80;94.30
29201;DHT22;16244;51.956;12.980;2022-11-15T14:52:21;8.80;94.60
29201;DHT22;16244;51.956;12.980;2022-11-15T14:54:49;8.70;94.30
29201;DHT22;16244;51.956;12.980;2022-11-15T14:57:16;8.50;94.50
29201;DHT22;16244;51.956;12.980;2022-11-15T14:59:43;8.50;94.60
29201;DHT22;16244;51.956;12.980;2022-11-15T15:02:15;8.40;94.70
29201;DHT22;16244;51.956;12.980;2022-11-15T15:04:44;8.30;94.80
29201;DHT22;16244;51.956;12.980;2022-11-15T15:07:11;8.20;94.70
29201;DHT22;16244;51.956;12.980;2022-11-15T15:09:38;8.10;94.80
29201;DHT22;16244;51.956;12.980;2022-11-15T15:12:14;8.00;95.00
29201;DHT22;16244;51.956;12.980;2022-11-15T15:14:41;7.90;95.50
29201;DHT22;16244;51.956;12.980;2022-11-15T15:17:09;7.90;95.80
29201;DHT22;16244;51.956;12.980;2022-11-15T15:19:36;7.80;96.10
29201;DHT22;16244;51.956;12.980;2022-11-15T15:22:05;7.80;96.20
29201;DHT22;16244;51.956;12.980;2022-11-15T15:24:32;7.80;96.20
29201;DHT22;16244;51.956;12.980;2022-11-15T15:26:59;7.80;96.20
29201;DHT22;16244;51.956;12.980;2022-11-15T15:29:26;7.70;96.10
29201;DHT22;16244;51.956;12.980;2022-11-15T15:31:53;7.60;96.10
29201;DHT22;16244;51.956;12.980;2022-11-15T15:34:20;7.60;96.20
29201;DHT22;16244;51.956;12.980;2022-11-15T15:36:47;7.50;96.30
29201;DHT22;16244;51.956;12.980;2022-11-15T15:39:16;7.40;96.20
29201;DHT22;16244;51.956;12.980;2022-11-15T15:41:43;7.40;96.10
29201;DHT22;16244;51.956;12.980;2022-11-15T15:44:10;7.30;95.70
29201;DHT22;16244;51.956;12.980;2022-11-15T15:46:37;7.20;95.60
29201;DHT22;16244;51.956;12.980;2022-11-15T15:49:04;7.10;95.80
29201;DHT22;16244;51.956;12.980;2022-11-15T15:51:32;7.00;95.70
29201;DHT22;16244;51.956;12.980;2022-11-15T15:53:59;7.00;95.60
29201;DHT22;16244;51.956;12.980;2022-11-15T15:56:27;7.00;95.50
29201;DHT22;16244;51.956;12.980;2022-11-15T15:58:55;6.90;95.80
29201;DHT22;16244;51.956;12.980;2022-11-15T16:01:23;6.90;96.00
29201;DHT22;16244;51.956;12.980;2022-11-15T16:03:50;6.80;96.10
29201;DHT22;16244;51.956;12.980;2022-11-15T16:06:34;6.70;96.20
29201;DHT22;16244;51.956;12.980;2022-11-15T16:09:02;6.70;96.10
29201;DHT22;16244;51.956;12.980;2022-11-15T16:11:31;6.70;96.10
29201;DHT22;16244;51.956;12.980;2022-11-15T16:13:59;6.60;96.00
29201;DHT22;16244;51.956;12.980;2022-11-15T16:16:26;6.50;95.90